Time;durP1;ratioP1;P1;durP2;ratioP2;P2;SDS_P1;SDS_P2;PMS_P1;PMS_P2;Temp;Humidity;BMP_temperature;BMP_pressure;BME280_temperature;BME280_humidity;BME280_pressure;Samples;Min_cycle;Max_cycle;Signal;HPM_P1;HPM_P2
2023/01/06 00:02:04;;;;;;;4.57;1.90;;;;;;;;;;5086439;28;20043;-62
2023/01/06 00:04:31;;;;;;;12.70;1.33;;;;;;;;;;5090175;28;20482;-62
2023/01/06 00:06:58;;;;;;;3.40;1.20;;;;;;;;;;5093039;28;20062;-62
2023/01/06 00:09:24;;;;;;;1.90;1.17;;;;;;;;;;5092122;28;20016;-62
2023/01/06 00:11:51;;;;;;;4.73;1.20;;;;;;;;;;5092121;28;20028;-62
2023/01/06 00:14:18;;;;;;;2.60;1.47;;;;;;;;;;5092046;28;20382;-62
2023/01/06 00:16:44;;;;;;;1.67;1.10;;;;;;;;;;5100879;28;20462;-62
2023/01/06 00:19:11;;;;;;;3.73;1.17;;;;;;;;;;5106777;28;20436;-62
2023/01/06 00:21:38;;;;;;;1.70;1.07;;;;;;;;;;5106482;28;20496;-62
2023/01/06 00:24:05;;;;;;;1.87;1.00;;;;;;;;;;5106787;28;20038;-62
2023/01/06 00:26:31;;;;;;;2.47;1.37;;;;;;;;;;5109468;28;20420;-62
2023/01/06 00:28:58;;;;;;;6.80;1.93;;;;;;;;;;5096265;28;20557;-62
2023/01/06 00:31:25;;;;;;;3.20;1.67;;;;;;;;;;5090024;28;20028;-62
2023/01/06 00:33:52;;;;;;;1.73;1.10;;;;;;;;;;5091555;28;20032;-62
2023/01/06 00:36:20;;;;;;;2.13;1.23;;;;;;;;;;5091639;28;20020;-62
2023/01/06 00:38:48;;;;;;;3.20;1.37;;;;;;;;;;5101728;28;20104;-62
2023/01/06 00:44:01;;;;;;;4.17;1.23;;;;;;;;;;5106024;28;20088;-62
2023/01/06 00:46:29;;;;;;;2.30;1.33;;;;;;;;;;5094101;28;20051;-62
2023/01/06 00:48:56;;;;;;;3.10;1.43;;;;;;;;;;5088797;28;20028;-62
2023/01/06 00:51:23;;;;;;;19.63;1.27;;;;;;;;;;5091546;28;20024;-63
2023/01/06 00:53:50;;;;;;;5.20;1.27;;;;;;;;;;5091283;28;20036;-62
2023/01/06 00:56:16;;;;;;;2.07;1.13;;;;;;;;;;5103259;28;20382;-62
2023/01/06 00:58:43;;;;;;;3.20;1.07;;;;;;;;;;5095516;28;20036;-62
2023/01/06 01:01:10;;;;;;;2.03;1.30;;;;;;;;;;5089002;28;20446;-62
2023/01/06 01:03:38;;;;;;;3.17;1.20;;;;;;;;;;5086388;28;20057;-62
2023/01/06 01:06:06;;;;;;;2.57;1.60;;;;;;;;;;5086142;28;20032;-62
2023/01/06 01:08:32;;;;;;;3.47;1.80;;;;;;;;;;5086586;28;20024;-62
2023/01/06 01:11:06;;;;;;;2.27;1.37;;;;;;;;;;5088560;28;20028;-62
2023/01/06 01:13:33;;;;;;;1.33;1.10;;;;;;;;;;5092268;28;20382;-62
2023/01/06 01:16:06;;;;;;;2.13;1.60;;;;;;;;;;5093104;28;20150;-62
2023/01/06 01:18:33;;;;;;;13.23;2.10;;;;;;;;;;5107536;28;20443;-62
2023/01/06 01:20:59;;;;;;;1.60;1.20;;;;;;;;;;5091444;28;20066;-62
2023/01/06 01:23:26;;;;;;;1.60;1.00;;;;;;;;;;5089423;28;20444;-60
2023/01/06 01:25:56;;;;;;;3.60;1.13;;;;;;;;;;5086200;28;20311;-61
2023/01/06 01:28:23;;;;;;;4.00;1.50;;;;;;;;;;5085839;28;20037;-62
2023/01/06 01:30:50;;;;;;;1.20;1.00;;;;;;;;;;5099637;28;20385;-61
2023/01/06 01:33:17;;;;;;;1.23;1.03;;;;;;;;;;5086941;28;20040;-61
2023/01/06 01:35:43;;;;;;;9.23;2.43;;;;;;;;;;5105834;28;20012;-61
2023/01/06 01:38:10;;;;;;;2.30;1.50;;;;;;;;;;5111329;28;20036;-61
2023/01/06 01:40:37;;;;;;;2.87;1.70;;;;;;;;;;5111788;28;20073;-61
2023/01/06 01:43:03;;;;;;;3.10;1.60;;;;;;;;;;5111720;28;20415;-63
2023/01/06 01:45:30;;;;;;;9.20;2.17;;;;;;;;;;5106812;28;20031;-62
2023/01/06 01:47:59;;;;;;;2.70;1.50;;;;;;;;;;5085913;28;20031;-62
2023/01/06 01:50:33;;;;;;;2.17;1.47;;;;;;;;;;5099964;28;20501;-62
2023/01/06 01:53:07;;;;;;;2.70;1.60;;;;;;;;;;5109443;28;20031;-62
2023/01/06 01:55:35;;;;;;;1.45;0.93;;;;;;;;;;5110474;28;20110;-62
2023/01/06 01:58:06;;;;;;;1.63;1.13;;;;;;;;;;5106058;28;20043;-63
2023/01/06 02:00:35;;;;;;;1.33;1.03;;;;;;;;;;5108222;28;20024;-62
2023/01/06 02:03:02;;;;;;;2.10;1.40;;;;;;;;;;5105976;28;20027;-62
2023/01/06 02:05:30;;;;;;;2.20;1.47;;;;;;;;;;5099373;28;20031;-62
2023/01/06 02:07:58;;;;;;;3.67;1.70;;;;;;;;;;5108323;28;20022;-62
2023/01/06 02:10:25;;;;;;;5.63;2.17;;;;;;;;;;5098246;28;20517;-62
2023/01/06 02:12:57;;;;;;;1.47;1.20;;;;;;;;;;5097023;28;20413;-61
2023/01/06 02:15:25;;;;;;;2.43;1.70;;;;;;;;;;5092094;28;20036;-62
2023/01/06 02:17:55;;;;;;;5.10;2.60;;;;;;;;;;5092238;28;20062;-62
2023/01/06 02:20:27;;;;;;;2.47;1.70;;;;;;;;;;5104123;28;20034;-63
2023/01/06 02:23:05;;;;;;;7.57;2.10;;;;;;;;;;5107064;28;20031;-63
2023/01/06 02:25:33;;;;;;;3.73;2.00;;;;;;;;;;5104726;28;20028;-62
2023/01/06 02:28:18;;;;;;;2.57;2.00;;;;;;;;;;5099537;28;20020;-62
2023/01/06 02:30:51;;;;;;;2.45;1.65;;;;;;;;;;5102640;28;20397;-62
2023/01/06 02:33:30;;;;;;;12.47;2.53;;;;;;;;;;5093232;28;20471;-62
2023/01/06 02:35:56;;;;;;;4.53;2.30;;;;;;;;;;5089823;28;20020;-62
2023/01/06 02:38:42;;;;;;;6.47;2.87;;;;;;;;;;5094026;28;20028;-62
2023/01/06 02:41:08;;;;;;;;;;;;;;;;;;5107156;28;20522;-61
2023/01/06 02:43:38;;;;;;;3.07;2.07;;;;;;;;;;5114109;28;20357;-62
2023/01/06 02:46:12;;;;;;;7.23;3.50;;;;;;;;;;5114222;28;20076;-62
2023/01/06 02:48:45;;;;;;;5.80;2.47;;;;;;;;;;5114098;28;20366;-62
2023/01/06 02:51:11;;;;;;;5.60;2.87;;;;;;;;;;5104827;28;20339;-62
2023/01/06 02:53:44;;;;;;;5.77;3.33;;;;;;;;;;5089997;28;20434;-61
2023/01/06 02:56:11;;;;;;;5.60;3.70;;;;;;;;;;5088407;28;20031;-61
2023/01/06 02:59:02;;;;;;;9.70;3.80;;;;;;;;;;5090781;28;20375;-61
2023/01/06 03:01:35;;;;;;;5.00;3.37;;;;;;;;;;5108225;28;20050;-62
2023/01/06 03:04:03;;;;;;;10.80;4.37;;;;;;;;;;5111319;28;20076;-62
2023/01/06 03:06:31;;;;;;;5.67;2.57;;;;;;;;;;5113600;28;20024;-62
2023/01/06 03:08:58;;;;;;;5.30;3.87;;;;;;;;;;5103327;28;20020;-62
2023/01/06 03:11:26;;;;;;;11.67;3.73;;;;;;;;;;5097026;28;20470;-62
2023/01/06 03:13:56;;;;;;;20.53;3.00;;;;;;;;;;5093222;28;20028;-62
2023/01/06 03:16:22;;;;;;;8.17;4.33;;;;;;;;;;5089916;28;20069;-61
2023/01/06 03:18:50;;;;;;;3.00;2.20;;;;;;;;;;5087610;28;20506;-63
2023/01/06 03:21:19;;;;;;;5.23;3.83;;;;;;;;;;5105921;28;20043;-62
2023/01/06 03:23:46;;;;;;;5.23;3.60;;;;;;;;;;5104732;28;20486;-62
2023/01/06 03:26:13;;;;;;;7.40;2.97;;;;;;;;;;5106088;28;20051;-62
2023/01/06 03:28:40;;;;;;;8.60;3.53;;;;;;;;;;5113292;28;20094;-61
2023/01/06 03:31:15;;;;;;;4.00;2.90;;;;;;;;;;5107818;28;20020;-62
2023/01/06 03:33:51;;;;;;;9.87;3.47;;;;;;;;;;5092273;28;20020;-62
2023/01/06 03:36:38;;;;;;;5.90;3.53;;;;;;;;;;5105399;28;20045;-62
2023/01/06 03:39:11;;;;;;;7.50;3.23;;;;;;;;;;5109093;28;20032;-62
2023/01/06 03:44:44;;;;;;;7.33;4.13;;;;;;;;;;5107971;28;20151;-62
2023/01/06 03:47:14;;;;;;;5.22;2.40;;;;;;;;;;5103415;28;20114;-62
2023/01/06 03:50:04;;;;;;;27.20;3.47;;;;;;;;;;5102369;28;20507;-62
2023/01/06 03:52:33;;;;;;;4.27;3.00;;;;;;;;;;5092092;28;20111;-62
2023/01/06 03:55:05;;;;;;;17.20;3.13;;;;;;;;;;5092578;28;20020;-61
2023/01/06 03:57:37;;;;;;;10.63;3.20;;;;;;;;;;5093902;28;20486;-62
2023/01/06 04:00:10;;;;;;;4.07;2.63;;;;;;;;;;5091502;28;20077;-62
2023/01/06 04:02:37;;;;;;;6.43;3.57;;;;;;;;;;5087362;28;20028;-62
2023/01/06 04:05:16;;;;;;;4.23;2.87;;;;;;;;;;5087064;28;20513;-62
2023/01/06 04:07:43;;;;;;;3.20;2.33;;;;;;;;;;5087006;28;20111;-62
2023/01/06 04:10:11;;;;;;;5.17;3.20;;;;;;;;;;5098185;28;20061;-62
2023/01/06 04:12:38;;;;;;;3.60;2.80;;;;;;;;;;5112168;28;20098;-62
2023/01/06 04:15:25;;;;;;;7.27;3.80;;;;;;;;;;5112027;28;20027;-62
2023/01/06 04:17:52;;;;;;;2.67;2.03;;;;;;;;;;5112140;28;20034;-62
2023/01/06 04:20:22;;;;;;;5.90;4.37;;;;;;;;;;5112543;28;20107;-61
2023/01/06 04:22:49;;;;;;;3.53;2.67;;;;;;;;;;5095194;28;20110;-61
2023/01/06 04:25:16;;;;;;;3.53;2.77;;;;;;;;;;5086232;28;20039;-62
2023/01/06 04:27:43;;;;;;;5.50;3.77;;;;;;;;;;5086829;28;20420;-61
2023/01/06 04:30:10;;;;;;;4.73;3.00;;;;;;;;;;5086757;28;20382;-62
2023/01/06 04:32:37;;;;;;;4.17;3.37;;;;;;;;;;5097306;28;20036;-62
2023/01/06 04:35:03;;;;;;;3.70;2.87;;;;;;;;;;5112304;28;20011;-61
2023/01/06 04:37:30;;;;;;;7.70;3.90;;;;;;;;;;5111963;28;20023;-62
2023/01/06 04:39:57;;;;;;;12.00;4.23;;;;;;;;;;5110092;28;20053;-63
2023/01/06 04:42:23;;;;;;;6.80;2.47;;;;;;;;;;5111955;28;20467;-62
2023/01/06 04:44:50;;;;;;;6.37;4.30;;;;;;;;;;5109890;28;20038;-63
2023/01/06 04:47:17;;;;;;;6.57;3.83;;;;;;;;;;5086429;28;20089;-62
2023/01/06 04:49:44;;;;;;;4.30;3.00;;;;;;;;;;5086623;28;20027;-61
2023/01/06 04:52:11;;;;;;;4.90;3.90;;;;;;;;;;5085208;28;20131;-61
2023/01/06 04:54:37;;;;;;;4.97;2.37;;;;;;;;;;5086557;28;20107;-61
2023/01/06 04:57:04;;;;;;;7.00;4.23;;;;;;;;;;5109318;28;20486;-62
2023/01/06 04:59:31;;;;;;;5.07;3.57;;;;;;;;;;5091791;28;20032;-61
2023/01/06 05:01:57;;;;;;;8.63;4.63;;;;;;;;;;5091294;28;20035;-62
2023/01/06 05:04:24;;;;;;;5.57;3.50;;;;;;;;;;5091922;28;20390;-61
2023/01/06 05:06:51;;;;;;;4.53;2.53;;;;;;;;;;5099171;28;20430;-61
2023/01/06 05:09:17;;;;;;;5.37;3.57;;;;;;;;;;5087181;28;20027;-62
2023/01/06 05:11:44;;;;;;;13.53;5.13;;;;;;;;;;5087244;28;20028;-61
2023/01/06 05:14:11;;;;;;;9.67;3.47;;;;;;;;;;5087152;28;20475;-62
2023/01/06 05:16:38;;;;;;;6.27;2.97;;;;;;;;;;5088288;28;20050;-61
2023/01/06 05:19:05;;;;;;;5.03;3.40;;;;;;;;;;5099832;28;20036;-61
2023/01/06 05:21:32;;;;;;;7.07;3.63;;;;;;;;;;5092125;28;20459;-61
2023/01/06 05:23:58;;;;;;;12.43;4.43;;;;;;;;;;5091764;28;20035;-61
2023/01/06 05:26:26;;;;;;;5.97;3.83;;;;;;;;;;5092501;28;20020;-62
2023/01/06 05:28:53;;;;;;;5.30;3.73;;;;;;;;;;5099523;28;20094;-61
2023/01/06 05:31:19;;;;;;;6.07;3.93;;;;;;;;;;5116077;28;20034;-62
2023/01/06 05:33:46;;;;;;;4.07;2.50;;;;;;;;;;5112139;28;20113;-61
2023/01/06 05:36:14;;;;;;;4.57;3.00;;;;;;;;;;5110772;28;20028;-62
2023/01/06 05:38:41;;;;;;;8.77;3.17;;;;;;;;;;5110950;28;20043;-61
2023/01/06 05:41:08;;;;;;;4.13;2.43;;;;;;;;;;5103316;28;20066;-61
2023/01/06 05:43:36;;;;;;;6.83;4.33;;;;;;;;;;5090849;28;20059;-61
2023/01/06 05:46:06;;;;;;;4.77;2.37;;;;;;;;;;5094944;28;20027;-61
2023/01/06 05:48:33;;;;;;;4.03;2.20;;;;;;;;;;5095323;28;20024;-61
2023/01/06 05:51:01;;;;;;;9.60;4.87;;;;;;;;;;5094775;28;20081;-62
2023/01/06 05:53:30;;;;;;;8.43;3.83;;;;;;;;;;5095973;28;20152;-61
2023/01/06 05:56:00;;;;;;;6.43;3.80;;;;;;;;;;5095100;28;20020;-61
2023/01/06 05:58:27;;;;;;;2.80;1.53;;;;;;;;;;5091240;28;20032;-62
2023/01/06 06:00:54;;;;;;;7.70;4.53;;;;;;;;;;5090756;28;20378;-61
2023/01/06 06:03:21;;;;;;;11.73;4.30;;;;;;;;;;5095602;28;20023;-61
2023/01/06 06:05:47;;;;;;;5.00;3.47;;;;;;;;;;5110605;28;20028;-61
2023/01/06 06:08:14;;;;;;;4.93;3.33;;;;;;;;;;5110410;28;20027;-61
2023/01/06 06:10:41;;;;;;;3.93;2.50;;;;;;;;;;5114520;28;20027;-61
2023/01/06 06:13:07;;;;;;;5.93;3.30;;;;;;;;;;5111403;28;20051;-61
2023/01/06 06:15:34;;;;;;;5.67;2.87;;;;;;;;;;5094890;28;20505;-61
2023/01/06 06:18:02;;;;;;;8.40;3.47;;;;;;;;;;5094698;28;20033;-61
2023/01/06 06:20:29;;;;;;;4.43;2.83;;;;;;;;;;5094569;28;20028;-61
2023/01/06 06:22:55;;;;;;;5.00;2.77;;;;;;;;;;5091764;28;20024;-61
2023/01/06 06:25:22;;;;;;;14.80;3.33;;;;;;;;;;5096103;28;20547;-61
2023/01/06 06:27:49;;;;;;;4.07;3.13;;;;;;;;;;5110154;28;20011;-61
2023/01/06 06:30:16;;;;;;;4.27;3.10;;;;;;;;;;5110229;28;20024;-61
2023/01/06 06:32:43;;;;;;;5.17;3.60;;;;;;;;;;5110074;28;20032;-61
2023/01/06 06:35:09;;;;;;;6.67;4.43;;;;;;;;;;5113401;28;20087;-61
2023/01/06 06:37:36;;;;;;;28.37;4.40;;;;;;;;;;5105035;28;20028;-61
2023/01/06 06:40:03;;;;;;;7.53;2.83;;;;;;;;;;5094312;28;20028;-61
2023/01/06 06:42:30;;;;;;;4.77;3.83;;;;;;;;;;5093673;28;20532;-61
2023/01/06 06:44:57;;;;;;;8.40;3.33;;;;;;;;;;5094562;28;20153;-61
2023/01/06 06:47:23;;;;;;;4.67;3.93;;;;;;;;;;5091860;28;20035;-61
2023/01/06 06:49:50;;;;;;;5.07;3.20;;;;;;;;;;5090376;28;20043;-61
2023/01/06 06:52:17;;;;;;;7.60;3.73;;;;;;;;;;5089318;28;20113;-61
2023/01/06 06:54:43;;;;;;;10.77;3.47;;;;;;;;;;5089196;28;20523;-61
2023/01/06 06:57:10;;;;;;;4.37;3.37;;;;;;;;;;5089277;28;20024;-61
2023/01/06 06:59:37;;;;;;;5.03;2.93;;;;;;;;;;5091143;28;20032;-61
2023/01/06 07:02:04;;;;;;;14.97;3.67;;;;;;;;;;5095287;28;20735;-61
2023/01/06 07:04:31;;;;;;;5.00;2.33;;;;;;;;;;5093943;28;20020;-61
2023/01/06 07:06:58;;;;;;;4.70;3.20;;;;;;;;;;5093800;28;20306;-61
2023/01/06 07:09:24;;;;;;;4.57;2.83;;;;;;;;;;5093859;28;20310;-61
2023/01/06 07:11:51;;;;;;;3.03;2.40;;;;;;;;;;5091870;28;20347;-61
2023/01/06 07:14:18;;;;;;;4.00;3.00;;;;;;;;;;5096622;28;20356;-61
2023/01/06 07:16:44;;;;;;;3.73;2.13;;;;;;;;;;5109030;28;20252;-61
2023/01/06 07:19:11;;;;;;;7.10;2.33;;;;;;;;;;5107633;28;20034;-62
2023/01/06 07:21:38;;;;;;;4.07;3.33;;;;;;;;;;5109222;28;20326;-61
2023/01/06 07:24:05;;;;;;;4.30;3.30;;;;;;;;;;5111278;28;20614;-61
2023/01/06 07:26:31;;;;;;;8.60;4.17;;;;;;;;;;5103359;28;20272;-61
2023/01/06 07:28:58;;;;;;;7.03;3.80;;;;;;;;;;5093327;28;20256;-62
2023/01/06 07:31:25;;;;;;;4.27;3.40;;;;;;;;;;5093212;28;20279;-61
2023/01/06 07:33:52;;;;;;;3.27;2.47;;;;;;;;;;5093083;28;20267;-61
2023/01/06 07:36:19;;;;;;;5.83;3.80;;;;;;;;;;5108130;28;20557;-61
2023/01/06 07:38:45;;;;;;;5.17;3.10;;;;;;;;;;5108688;28;20292;-61
2023/01/06 07:41:12;;;;;;;5.80;3.00;;;;;;;;;;5108881;28;20264;-61
2023/01/06 07:43:39;;;;;;;12.23;3.73;;;;;;;;;;5101408;28;20263;-61
2023/01/06 07:46:06;;;;;;;3.20;2.23;;;;;;;;;;5088086;28;20268;-61
2023/01/06 07:48:32;;;;;;;14.53;3.57;;;;;;;;;;5089128;28;20278;-61
2023/01/06 07:50:59;;;;;;;4.63;2.87;;;;;;;;;;5092500;28;20382;-61
2023/01/06 07:53:26;;;;;;;7.23;4.33;;;;;;;;;;5097676;28;20340;-61
2023/01/06 07:55:53;;;;;;;6.17;3.70;;;;;;;;;;5113297;28;20344;-61
2023/01/06 07:58:20;;;;;;;7.67;3.53;;;;;;;;;;5113199;28;20287;-61
2023/01/06 08:00:47;;;;;;;4.43;2.87;;;;;;;;;;5112562;28;20615;-61
2023/01/06 08:03:13;;;;;;;4.90;3.43;;;;;;;;;;5108278;28;20689;-61
2023/01/06 08:05:41;;;;;;;6.80;2.93;;;;;;;;;;5101858;28;20288;-61
2023/01/06 08:08:08;;;;;;;4.93;3.30;;;;;;;;;;5087837;28;20257;-61
2023/01/06 08:10:35;;;;;;;4.17;2.67;;;;;;;;;;5088072;28;20285;-61
2023/01/06 08:13:02;;;;;;;5.87;2.63;;;;;;;;;;5088961;28;20754;-61
2023/01/06 08:15:28;;;;;;;5.67;4.37;;;;;;;;;;5092601;28;20268;-61
2023/01/06 08:17:55;;;;;;;3.73;2.73;;;;;;;;;;5102101;28;20297;-61
2023/01/06 08:20:22;;;;;;;3.20;2.40;;;;;;;;;;5112867;28;20939;-61
2023/01/06 08:22:49;;;;;;;5.10;3.33;;;;;;;;;;5112561;28;20331;-61
2023/01/06 08:25:16;;;;;;;3.10;2.60;;;;;;;;;;5112495;28;20753;-60
2023/01/06 08:27:44;;;;;;;6.00;4.07;;;;;;;;;;5107855;28;20791;-61
2023/01/06 08:30:11;;;;;;;6.27;3.70;;;;;;;;;;5092858;28;20754;-62
2023/01/06 08:32:38;;;;;;;3.53;3.03;;;;;;;;;;5087745;28;20351;-61
2023/01/06 08:35:05;;;;;;;3.70;2.80;;;;;;;;;;5097055;28;20321;-61
2023/01/06 08:37:32;;;;;;;8.83;4.43;;;;;;;;;;5108521;28;20301;-61
2023/01/06 08:39:58;;;;;;;13.17;4.43;;;;;;;;;;5112267;28;20267;-61
2023/01/06 08:42:25;;;;;;;2.83;2.53;;;;;;;;;;5112585;28;20255;-61
2023/01/06 08:44:52;;;;;;;6.07;3.57;;;;;;;;;;5105538;28;20257;-61
2023/01/06 08:47:18;;;;;;;1.80;1.60;;;;;;;;;;5092294;28;20628;-61
2023/01/06 08:49:45;;;;;;;4.03;2.93;;;;;;;;;;5098921;28;20263;-61
2023/01/06 08:52:12;;;;;;;4.30;3.47;;;;;;;;;;5107818;28;20343;-61
2023/01/06 08:54:38;;;;;;;2.83;2.17;;;;;;;;;;5107789;28;20339;-61
2023/01/06 08:57:07;;;;;;;6.07;3.40;;;;;;;;;;5107144;28;20550;-62
2023/01/06 08:59:33;;;;;;;4.67;3.17;;;;;;;;;;5102781;28;20296;-61
2023/01/06 09:02:01;;;;;;;5.57;2.67;;;;;;;;;;5091020;28;20585;-61
2023/01/06 09:04:27;;;;;;;6.37;4.77;;;;;;;;;;5096186;28;20260;-61
2023/01/06 09:06:55;;;;;;;7.40;2.47;;;;;;;;;;5096201;28;20769;-61
2023/01/06 09:09:22;;;;;;;5.10;3.57;;;;;;;;;;5096045;28;20637;-61
2023/01/06 09:11:49;;;;;;;3.07;2.23;;;;;;;;;;5101886;28;20268;-61
2023/01/06 09:14:15;;;;;;;7.93;2.60;;;;;;;;;;5116479;28;20259;-61
2023/01/06 09:16:42;;;;;;;2.40;1.87;;;;;;;;;;5100614;28;20280;-61
2023/01/06 09:19:09;;;;;;;5.70;2.47;;;;;;;;;;5091131;28;20636;-61
2023/01/06 09:21:36;;;;;;;3.03;2.40;;;;;;;;;;5091079;28;20263;-61
2023/01/06 09:24:03;;;;;;;4.50;3.27;;;;;;;;;;5091197;28;20256;-61
2023/01/06 09:26:30;;;;;;;5.27;3.30;;;;;;;;;;5099121;28;20268;-61
2023/01/06 09:28:56;;;;;;;3.70;3.00;;;;;;;;;;5115210;28;20252;-61
2023/01/06 09:31:23;;;;;;;4.13;3.10;;;;;;;;;;5107304;28;20265;-60
2023/01/06 09:33:50;;;;;;;4.90;3.30;;;;;;;;;;5095623;28;20267;-61
2023/01/06 09:36:16;;;;;;;8.03;3.23;;;;;;;;;;5096692;28;20276;-61
2023/01/06 09:38:43;;;;;;;3.47;3.07;;;;;;;;;;5095569;28;20284;-60
2023/01/06 09:41:12;;;;;;;5.23;3.67;;;;;;;;;;5097539;28;20347;-61
2023/01/06 09:43:46;;;;;;;2.30;1.73;;;;;;;;;;5111260;28;20256;-61
2023/01/06 09:46:15;;;;;;;4.67;3.23;;;;;;;;;;5111196;28;20338;-61
2023/01/06 09:49:05;;;;;;;9.77;3.67;;;;;;;;;;5111075;28;20649;-61
2023/01/06 09:51:32;;;;;;;2.20;1.73;;;;;;;;;;5072697;28;20256;-61
2023/01/06 09:54:17;;;;;;;4.87;3.13;;;;;;;;;;5102822;28;20317;-61
2023/01/06 09:56:44;;;;;;;6.95;4.32;;;;;;;;;;5095260;28;20255;-61
2023/01/06 09:59:19;;;;;;;4.63;3.20;;;;;;;;;;5095356;28;20032;-61
2023/01/06 10:01:48;;;;;;;2.10;1.80;;;;;;;;;;5095309;28;20248;-61
2023/01/06 10:04:17;;;;;;;4.60;3.20;;;;;;;;;;5094807;28;20031;-61
2023/01/06 10:06:45;;;;;;;3.00;2.30;;;;;;;;;;5109469;28;20336;-61
2023/01/06 10:09:27;;;;;;;3.53;2.57;;;;;;;;;;5110553;28;20241;-61
2023/01/06 10:12:00;;;;;;;3.23;2.27;;;;;;;;;;5109889;28;20248;-61
2023/01/06 10:14:37;;;;;;;2.87;2.40;;;;;;;;;;5109978;28;20260;-61
2023/01/06 10:17:24;;;;;;;3.73;2.27;;;;;;;;;;5071302;28;20269;-61
2023/01/06 10:20:02;;;;;;;4.00;3.27;;;;;;;;;;5074606;28;20284;-61
2023/01/06 10:22:29;;;;;;;2.03;1.83;;;;;;;;;;5074161;28;20716;-60
2023/01/06 10:25:08;;;;;;;10.77;3.13;;;;;;;;;;5080623;28;20647;-61
2023/01/06 10:27:35;;;;;;;4.77;2.67;;;;;;;;;;5115211;28;20757;-61
2023/01/06 10:30:03;;;;;;;2.23;1.77;;;;;;;;;;5112797;28;20618;-61
2023/01/06 10:32:32;;;;;;;2.97;2.07;;;;;;;;;;5110157;28;20284;-61
2023/01/06 10:34:59;;;;;;;2.33;2.10;;;;;;;;;;5109807;28;20610;-61
2023/01/06 10:37:31;;;;;;;4.97;2.70;;;;;;;;;;5102165;28;20264;-60
2023/01/06 10:40:06;;;;;;;4.40;3.03;;;;;;;;;;5089456;28;20292;-61
2023/01/06 10:45:18;;;;;;;10.80;3.33;;;;;;;;;;5093850;28;20030;-61
2023/01/06 10:47:45;;;;;;;3.60;2.80;;;;;;;;;;5094126;28;20027;-61
2023/01/06 10:50:16;;;;;;;4.67;3.30;;;;;;;;;;5109403;28;20271;-60
2023/01/06 10:52:44;;;;;;;4.10;2.97;;;;;;;;;;5114604;28;20248;-61
2023/01/06 10:55:20;;;;;;;7.63;2.93;;;;;;;;;;5111507;28;20267;-61
2023/01/06 10:57:47;;;;;;;3.87;2.97;;;;;;;;;;5109243;28;20280;-60
2023/01/06 11:00:16;;;;;;;6.90;3.43;;;;;;;;;;5108758;28;20252;-61
2023/01/06 11:02:47;;;;;;;2.80;2.17;;;;;;;;;;5089154;28;20268;-61
2023/01/06 11:05:14;;;;;;;3.57;2.90;;;;;;;;;;5089107;28;20334;-61
2023/01/06 11:07:51;;;;;;;3.13;2.30;;;;;;;;;;5092846;28;20781;-61
2023/01/06 11:10:23;;;;;;;4.20;2.30;;;;;;;;;;5093454;28;20264;-61
2023/01/06 11:12:50;;;;;;;4.23;2.97;;;;;;;;;;5097914;28;20279;-61
2023/01/06 11:15:21;;;;;;;4.07;3.33;;;;;;;;;;5114235;28;20260;-61
2023/01/06 11:17:48;;;;;;;3.13;2.60;;;;;;;;;;5113827;28;20271;-61
2023/01/06 11:20:18;;;;;;;3.67;3.10;;;;;;;;;;5110072;28;20248;-61
2023/01/06 11:22:47;;;;;;;6.43;3.03;;;;;;;;;;5108952;28;20544;-61
2023/01/06 11:25:19;;;;;;;7.30;3.20;;;;;;;;;;5099033;28;20277;-61
2023/01/06 11:27:47;;;;;;;4.00;2.63;;;;;;;;;;5088729;28;20257;-61
2023/01/06 11:30:27;;;;;;;3.20;2.60;;;;;;;;;;5088666;28;20266;-61
2023/01/06 11:32:54;;;;;;;2.67;2.23;;;;;;;;;;5093664;28;20275;-61
2023/01/06 11:35:22;;;;;;;3.03;2.50;;;;;;;;;;5092882;28;20306;-60
2023/01/06 11:37:48;;;;;;;3.87;3.13;;;;;;;;;;5106469;28;20380;-61
2023/01/06 11:40:27;;;;;;;1.47;1.27;;;;;;;;;;5113574;28;20256;-61
2023/01/06 11:42:56;;;;;;;2.67;2.13;;;;;;;;;;5113759;28;20344;-61
2023/01/06 11:45:48;;;;;;;3.73;3.03;;;;;;;;;;5108794;28;20270;-61
2023/01/06 11:48:41;;;;;;;7.90;3.63;;;;;;;;;;5096685;28;20284;-61
2023/01/06 11:51:09;;;;;;;2.97;2.47;;;;;;;;;;5084522;28;20269;-61
2023/01/06 11:53:37;;;;;;;2.13;1.90;;;;;;;;;;5088094;28;20347;-61
2023/01/06 11:56:05;;;;;;;3.20;2.60;;;;;;;;;;5090214;28;20348;-60
2023/01/06 11:58:38;;;;;;;2.87;2.17;;;;;;;;;;5092836;28;20290;-61
2023/01/06 12:01:16;;;;;;;3.30;2.40;;;;;;;;;;5105314;28;20256;-61
2023/01/06 12:03:45;;;;;;;3.63;2.67;;;;;;;;;;5112850;28;20260;-60
2023/01/06 12:06:20;;;;;;;3.50;2.87;;;;;;;;;;5112667;28;20264;-61
2023/01/06 12:08:53;;;;;;;3.77;3.07;;;;;;;;;;5110722;28;20295;-61
2023/01/06 12:11:40;;;;;;;3.90;2.80;;;;;;;;;;5108198;28;20259;-61
2023/01/06 12:14:12;;;;;;;3.00;2.23;;;;;;;;;;5057851;28;20278;-61
2023/01/06 12:16:40;;;;;;;3.20;2.27;;;;;;;;;;5067887;28;20295;-60
2023/01/06 12:19:13;;;;;;;3.43;3.13;;;;;;;;;;5067531;28;20281;-61
2023/01/06 12:21:41;;;;;;;2.23;1.70;;;;;;;;;;5071506;28;20258;-60
2023/01/06 12:24:12;;;;;;;4.00;2.23;;;;;;;;;;5078954;28;20730;-61
2023/01/06 12:26:39;;;;;;;3.40;2.77;;;;;;;;;;5112825;28;20359;-61
2023/01/06 12:29:07;;;;;;;2.33;1.90;;;;;;;;;;5112757;28;20314;-61
2023/01/06 12:31:33;;;;;;;2.93;2.50;;;;;;;;;;5112826;28;20260;-61
2023/01/06 12:34:00;;;;;;;5.13;2.73;;;;;;;;;;5109499;28;20256;-61
2023/01/06 12:36:27;;;;;;;5.00;3.87;;;;;;;;;;5102938;28;20313;-60
2023/01/06 12:39:00;;;;;;;2.33;1.70;;;;;;;;;;5087074;28;20296;-61
2023/01/06 12:41:45;;;;;;;5.43;3.50;;;;;;;;;;5087459;28;20289;-61
2023/01/06 12:44:30;;;;;;;3.50;2.70;;;;;;;;;;5087605;28;20296;-61
2023/01/06 12:47:13;;;;;;;3.00;2.67;;;;;;;;;;5090957;28;20114;-60
2023/01/06 12:49:53;;;;;;;2.57;1.97;;;;;;;;;;5107309;28;20023;-61
2023/01/06 12:52:40;;;;;;;3.23;2.93;;;;;;;;;;5112550;28;20252;-61
2023/01/06 12:55:09;;;;;;;7.23;3.50;;;;;;;;;;5112428;28;20320;-61
2023/01/06 12:57:51;;;;;;;2.13;1.70;;;;;;;;;;5111394;28;20678;-60
2023/01/06 13:00:28;;;;;;;3.13;2.63;;;;;;;;;;5101848;28;20763;-61
2023/01/06 13:03:23;;;;;;;2.73;2.00;;;;;;;;;;5105187;28;20385;-61
2023/01/06 13:06:08;;;;;;;5.60;3.78;;;;;;;;;;5106088;28;20314;-60
2023/01/06 13:08:44;;;;;;;4.50;3.20;;;;;;;;;;5107786;28;20030;-60
2023/01/06 13:11:29;;;;;;;3.60;3.00;;;;;;;;;;5111861;28;20095;-60
2023/01/06 13:14:02;;;;;;;3.20;2.90;;;;;;;;;;5092218;28;20265;-60
2023/01/06 13:16:35;;;;;;;3.60;3.23;;;;;;;;;;5102732;28;20052;-61
2023/01/06 13:19:07;;;;;;;6.73;2.83;;;;;;;;;;5112251;28;20280;-61
2023/01/06 13:21:35;;;;;;;5.00;3.70;;;;;;;;;;5112187;28;20256;-61
2023/01/06 13:24:02;;;;;;;3.93;3.23;;;;;;;;;;5107732;28;20258;-61
2023/01/06 13:26:39;;;;;;;14.93;5.43;;;;;;;;;;5105530;28;20253;-61
2023/01/06 13:29:28;;;;;;;3.40;2.40;;;;;;;;;;5086979;28;20329;-61
2023/01/06 13:32:15;;;;;;;3.27;2.87;;;;;;;;;;5093149;28;20264;-61
2023/01/06 13:34:46;;;;;;;3.57;2.83;;;;;;;;;;5108777;28;20259;-61
2023/01/06 13:37:19;;;;;;;4.47;3.17;;;;;;;;;;5111792;28;20287;-61
2023/01/06 13:39:47;;;;;;;7.10;5.87;;;;;;;;;;5108148;28;20286;-61
2023/01/06 13:42:16;;;;;;;4.50;3.33;;;;;;;;;;5092644;28;20322;-61
2023/01/06 13:59:21;;;;;;;5.60;3.83;;;;;;;;;;5064096;28;20415;-60
2023/01/06 14:01:48;;;;;;;9.82;4.90;;;;;;;;;;5064587;28;20270;-61
2023/01/06 14:04:38;;;;;;;6.70;4.70;;;;;;;;;;5064440;28;20035;-60
2023/01/06 14:07:05;;;;;;;5.07;4.13;;;;;;;;;;5063915;28;20747;-60
2023/01/06 14:09:36;;;;;;;6.37;3.83;;;;;;;;;;5066150;28;20339;-60
2023/01/06 14:12:10;;;;;;;7.03;4.30;;;;;;;;;;5069361;28;20277;-60
2023/01/06 14:14:38;;;;;;;10.32;5.15;;;;;;;;;;5069241;28;20257;-60
2023/01/06 14:17:05;;;;;;;6.57;4.83;;;;;;;;;;5069081;28;20485;-60
2023/01/06 14:19:34;;;;;;;8.43;4.60;;;;;;;;;;5068709;28;20736;-60
2023/01/06 14:22:18;;;;;;;5.17;3.50;;;;;;;;;;5067575;28;20285;-60
2023/01/06 14:24:52;;;;;;;5.63;4.57;;;;;;;;;;5064085;28;20757;-60
2023/01/06 14:27:37;;;;;;;6.17;4.00;;;;;;;;;;5064205;28;20253;-60
2023/01/06 14:30:05;;;;;;;4.80;3.92;;;;;;;;;;5064187;28;20025;-60
2023/01/06 14:32:34;;;;;;;3.57;2.90;;;;;;;;;;5063811;28;20485;-60
2023/01/06 14:35:02;;;;;;;10.67;6.10;;;;;;;;;;5067110;28;20025;-61
2023/01/06 14:37:41;;;;;;;8.43;5.83;;;;;;;;;;5068637;28;20471;-60
2023/01/06 14:40:16;;;;;;;6.80;4.93;;;;;;;;;;5068731;28;20025;-60
2023/01/06 14:42:43;;;;;;;9.85;4.35;;;;;;;;;;5068730;28;20024;-60
2023/01/06 14:45:17;;;;;;;6.37;2.83;;;;;;;;;;5068466;28;20027;-60
2023/01/06 14:47:53;;;;;;;5.67;3.53;;;;;;;;;;5064867;28;20024;-62
2023/01/06 14:50:24;;;;;;;6.37;3.23;;;;;;;;;;5063532;28;20477;-61
2023/01/06 14:53:01;;;;;;;9.90;5.67;;;;;;;;;;5063274;28;20021;-60
2023/01/06 14:55:31;;;;;;;4.50;3.70;;;;;;;;;;5063503;28;20056;-61
2023/01/06 14:57:58;;;;;;;7.80;4.07;;;;;;;;;;5063071;28;20076;-60
2023/01/06 15:00:28;;;;;;;8.37;4.60;;;;;;;;;;5067820;28;20029;-61
2023/01/06 15:02:56;;;;;;;10.57;5.23;;;;;;;;;;5068128;28;20329;-60
2023/01/06 15:05:26;;;;;;;12.83;4.40;;;;;;;;;;5068120;28;20025;-60
2023/01/06 15:08:25;;;;;;;14.57;3.97;;;;;;;;;;5068101;28;20017;-61
2023/01/06 15:10:52;;;;;;;30.10;5.73;;;;;;;;;;5042316;28;20448;-61
2023/01/06 15:13:22;;;;;;;4.90;3.43;;;;;;;;;;5049699;28;20021;-60
2023/01/06 15:15:54;;;;;;;7.57;6.03;;;;;;;;;;5049962;28;20017;-61
2023/01/06 15:18:20;;;;;;;6.77;3.80;;;;;;;;;;5049645;28;20029;-60
2023/01/06 15:20:47;;;;;;;3.93;3.23;;;;;;;;;;5049496;28;20021;-60
2023/01/06 15:23:18;;;;;;;6.37;4.17;;;;;;;;;;5050804;28;20027;-60